sensor_id;sensor_type;location;lat;lon;timestamp;pressure;altitude;pressure_sealevel;temperature;humidity
49999;BME280;68071;45.062;7.356;2023-06-24T00:00:47;95459.44;;;18.38;53.90
49999;BME280;68071;45.062;7.356;2023-06-24T00:03:50;95459.22;;;18.68;50.88
49999;BME280;68071;45.062;7.356;2023-06-24T00:06:56;95454.97;;;18.63;51.46
49999;BME280;68071;45.062;7.356;2023-06-24T00:10:03;95451.63;;;19.13;47.83
49999;BME280;68071;45.062;7.356;2023-06-24T00:13:07;95444.06;;;19.23;46.63
49999;BME280;68071;45.062;7.356;2023-06-24T00:16:11;95451.28;;;18.31;55.06
49999;BME280;68071;45.062;7.356;2023-06-24T00:19:15;95453.59;;;17.59;58.69
49999;BME280;68071;45.062;7.356;2023-06-24T00:22:19;95455.38;;;17.78;57.13
49999;BME280;68071;45.062;7.356;2023-06-24T00:25:23;95448.34;;;17.87;57.36
49999;BME280;68071;45.062;7.356;2023-06-24T00:28:27;95448.69;;;17.63;58.32
49999;BME280;68071;45.062;7.356;2023-06-24T00:31:30;95436.25;;;17.77;57.06
49999;BME280;68071;45.062;7.356;2023-06-24T00:34:34;95441.91;;;18.25;54.12
49999;BME280;68071;45.062;7.356;2023-06-24T00:37:38;95438.50;;;17.56;60.14
49999;BME280;68071;45.062;7.356;2023-06-24T00:40:42;95431.56;;;17.35;62.33
49999;BME280;68071;45.062;7.356;2023-06-24T00:43:46;95426.34;;;16.94;63.72
49999;BME280;68071;45.062;7.356;2023-06-24T00:46:50;95438.69;;;17.10;63.17
49999;BME280;68071;45.062;7.356;2023-06-24T00:49:54;95439.00;;;16.70;69.25
49999;BME280;68071;45.062;7.356;2023-06-24T00:52:58;95436.81;;;16.77;66.46
49999;BME280;68071;45.062;7.356;2023-06-24T00:56:02;95436.31;;;16.96;64.72
49999;BME280;68071;45.062;7.356;2023-06-24T00:59:06;95437.03;;;17.51;59.42
49999;BME280;68071;45.062;7.356;2023-06-24T01:02:10;95434.47;;;17.70;58.99
49999;BME280;68071;45.062;7.356;2023-06-24T01:05:15;95428.97;;;17.02;65.66
49999;BME280;68071;45.062;7.356;2023-06-24T01:08:19;95441.84;;;17.38;61.34
49999;BME280;68071;45.062;7.356;2023-06-24T01:11:26;95439.78;;;17.00;66.21
49999;BME280;68071;45.062;7.356;2023-06-24T01:14:31;95435.03;;;17.39;61.94
49999;BME280;68071;45.062;7.356;2023-06-24T01:17:35;95431.44;;;17.26;62.63
49999;BME280;68071;45.062;7.356;2023-06-24T01:24:06;95429.56;;;16.51;71.10
49999;BME280;68071;45.062;7.356;2023-06-24T01:27:19;95441.63;;;17.45;60.82
49999;BME280;68071;45.062;7.356;2023-06-24T01:30:41;95447.00;;;17.27;62.91
49999;BME280;68071;45.062;7.356;2023-06-24T01:33:54;95444.75;;;17.86;59.57
49999;BME280;68071;45.062;7.356;2023-06-24T01:37:06;95448.47;;;18.31;55.56
49999;BME280;68071;45.062;7.356;2023-06-24T01:43:21;95445.31;;;18.07;63.70
49999;BME280;68071;45.062;7.356;2023-06-24T01:46:27;95446.88;;;17.69;69.04
49999;BME280;68071;45.062;7.356;2023-06-24T01:49:32;95445.44;;;17.38;63.55
49999;BME280;68071;45.062;7.356;2023-06-24T01:52:36;95441.06;;;18.02;57.76
49999;BME280;68071;45.062;7.356;2023-06-24T01:55:44;95435.56;;;18.11;62.88
49999;BME280;68071;45.062;7.356;2023-06-24T01:58:50;95431.66;;;16.46;72.97
49999;BME280;68071;45.062;7.356;2023-06-24T02:01:55;95441.06;;;16.53;71.04
49999;BME280;68071;45.062;7.356;2023-06-24T02:05:01;95437.38;;;17.53;60.35
49999;BME280;68071;45.062;7.356;2023-06-24T02:08:07;95439.59;;;17.33;62.37
49999;BME280;68071;45.062;7.356;2023-06-24T02:11:12;95440.75;;;16.93;66.22
49999;BME280;68071;45.062;7.356;2023-06-24T02:14:16;95437.41;;;16.56;70.49
49999;BME280;68071;45.062;7.356;2023-06-24T02:17:21;95433.47;;;16.83;67.03
49999;BME280;68071;45.062;7.356;2023-06-24T02:20:27;95439.63;;;17.59;59.55
49999;BME280;68071;45.062;7.356;2023-06-24T02:23:32;95439.06;;;17.51;61.45
49999;BME280;68071;45.062;7.356;2023-06-24T02:26:37;95448.22;;;18.73;51.93
49999;BME280;68071;45.062;7.356;2023-06-24T02:29:44;95437.38;;;17.28;65.72
49999;BME280;68071;45.062;7.356;2023-06-24T02:32:49;95426.09;;;18.31;55.18
49999;BME280;68071;45.062;7.356;2023-06-24T02:35:54;95421.69;;;17.95;56.62
49999;BME280;68071;45.062;7.356;2023-06-24T02:38:58;95427.47;;;18.26;54.87
49999;BME280;68071;45.062;7.356;2023-06-24T02:42:01;95428.75;;;17.99;56.72
49999;BME280;68071;45.062;7.356;2023-06-24T02:45:05;95424.06;;;17.06;64.08
49999;BME280;68071;45.062;7.356;2023-06-24T02:48:10;95428.31;;;17.23;62.65
49999;BME280;68071;45.062;7.356;2023-06-24T02:51:14;95426.28;;;16.98;61.82
49999;BME280;68071;45.062;7.356;2023-06-24T02:54:19;95411.22;;;16.79;65.63
49999;BME280;68071;45.062;7.356;2023-06-24T02:57:43;95421.13;;;16.38;70.80
49999;BME280;68071;45.062;7.356;2023-06-24T03:01:06;95423.16;;;17.09;62.00
49999;BME280;68071;45.062;7.356;2023-06-24T03:04:23;95421.16;;;17.09;69.63
49999;BME280;68071;45.062;7.356;2023-06-24T03:07:28;95427.84;;;16.40;70.77
49999;BME280;68071;45.062;7.356;2023-06-24T03:10:31;95429.31;;;16.45;66.47
49999;BME280;68071;45.062;7.356;2023-06-24T03:13:35;95430.97;;;15.96;72.22
49999;BME280;68071;45.062;7.356;2023-06-24T03:16:59;95423.56;;;16.52;64.12
49999;BME280;68071;45.062;7.356;2023-06-24T03:20:03;95428.50;;;16.61;74.36
49999;BME280;68071;45.062;7.356;2023-06-24T03:23:10;95433.66;;;16.16;70.01
49999;BME280;68071;45.062;7.356;2023-06-24T03:26:15;95433.28;;;16.60;63.96
49999;BME280;68071;45.062;7.356;2023-06-24T03:29:20;95437.22;;;16.46;67.14
49999;BME280;68071;45.062;7.356;2023-06-24T03:32:31;95433.16;;;16.51;65.95
49999;BME280;68071;45.062;7.356;2023-06-24T03:35:40;95444.22;;;16.09;69.29
49999;BME280;68071;45.062;7.356;2023-06-24T03:38:48;95443.75;;;16.10;68.37
49999;BME280;68071;45.062;7.356;2023-06-24T03:41:53;95448.13;;;16.11;68.93
49999;BME280;68071;45.062;7.356;2023-06-24T03:44:56;95446.28;;;16.80;62.17
49999;BME280;68071;45.062;7.356;2023-06-24T03:48:00;95454.44;;;16.45;72.16
49999;BME280;68071;45.062;7.356;2023-06-24T03:51:04;95457.94;;;15.66;74.08
49999;BME280;68071;45.062;7.356;2023-06-24T03:54:09;95459.03;;;15.89;72.91
49999;BME280;68071;45.062;7.356;2023-06-24T03:57:13;95463.69;;;15.59;75.29
49999;BME280;68071;45.062;7.356;2023-06-24T04:00:17;95470.41;;;15.78;74.35
49999;BME280;68071;45.062;7.356;2023-06-24T04:03:24;95466.47;;;15.59;74.98
49999;BME280;68071;45.062;7.356;2023-06-24T04:06:31;95471.44;;;15.15;80.53
49999;BME280;68071;45.062;7.356;2023-06-24T04:09:34;95473.81;;;16.19;67.95
49999;BME280;68071;45.062;7.356;2023-06-24T04:12:39;95472.97;;;16.06;68.52
49999;BME280;68071;45.062;7.356;2023-06-24T04:15:43;95481.53;;;15.78;77.22
49999;BME280;68071;45.062;7.356;2023-06-24T04:18:48;95484.94;;;15.69;75.95
49999;BME280;68071;45.062;7.356;2023-06-24T04:21:51;95492.31;;;15.96;74.81
49999;BME280;68071;45.062;7.356;2023-06-24T04:24:55;95484.47;;;17.00;65.43
49999;BME280;68071;45.062;7.356;2023-06-24T04:28:01;95496.31;;;15.95;77.45
49999;BME280;68071;45.062;7.356;2023-06-24T04:31:04;95494.84;;;16.99;63.76
49999;BME280;68071;45.062;7.356;2023-06-24T04:34:08;95489.97;;;16.87;76.13
49999;BME280;68071;45.062;7.356;2023-06-24T04:37:12;95500.38;;;16.40;77.26
49999;BME280;68071;45.062;7.356;2023-06-24T04:40:17;95487.72;;;16.98;67.06
49999;BME280;68071;45.062;7.356;2023-06-24T04:43:20;95489.72;;;16.81;69.96
49999;BME280;68071;45.062;7.356;2023-06-24T04:46:24;95499.84;;;16.45;74.71
49999;BME280;68071;45.062;7.356;2023-06-24T04:49:28;95496.78;;;16.40;77.23
49999;BME280;68071;45.062;7.356;2023-06-24T04:52:32;95498.78;;;16.56;76.30
49999;BME280;68071;45.062;7.356;2023-06-24T04:55:36;95504.91;;;16.34;81.55
49999;BME280;68071;45.062;7.356;2023-06-24T04:58:40;95513.50;;;16.73;77.71
49999;BME280;68071;45.062;7.356;2023-06-24T05:01:44;95511.81;;;16.75;75.55
49999;BME280;68071;45.062;7.356;2023-06-24T05:04:48;95516.59;;;16.75;78.34
49999;BME280;68071;45.062;7.356;2023-06-24T05:07:52;95520.53;;;16.77;80.83
49999;BME280;68071;45.062;7.356;2023-06-24T05:10:55;95521.91;;;16.86;75.98
49999;BME280;68071;45.062;7.356;2023-06-24T05:14:00;95527.44;;;17.19;77.22
49999;BME280;68071;45.062;7.356;2023-06-24T05:17:04;95524.38;;;17.13;79.58
49999;BME280;68071;45.062;7.356;2023-06-24T05:20:08;95530.44;;;17.24;81.98
49999;BME280;68071;45.062;7.356;2023-06-24T05:23:12;95533.78;;;17.19;84.19
49999;BME280;68071;45.062;7.356;2023-06-24T05:26:16;95540.44;;;17.38;82.60
49999;BME280;68071;45.062;7.356;2023-06-24T05:29:20;95540.88;;;17.37;78.02
49999;BME280;68071;45.062;7.356;2023-06-24T05:32:24;95550.97;;;17.47;84.26
49999;BME280;68071;45.062;7.356;2023-06-24T05:35:27;95549.84;;;17.58;81.44
49999;BME280;68071;45.062;7.356;2023-06-24T05:38:31;95549.31;;;17.63;85.68
49999;BME280;68071;45.062;7.356;2023-06-24T05:41:35;95553.56;;;17.67;87.24
49999;BME280;68071;45.062;7.356;2023-06-24T05:44:39;95555.03;;;17.85;81.91
49999;BME280;68071;45.062;7.356;2023-06-24T05:47:43;95553.13;;;17.95;80.50
49999;BME280;68071;45.062;7.356;2023-06-24T05:50:47;95557.63;;;18.18;78.90
49999;BME280;68071;45.062;7.356;2023-06-24T05:53:50;95558.50;;;18.28;79.29
49999;BME280;68071;45.062;7.356;2023-06-24T05:56:54;95560.28;;;18.48;82.01
49999;BME280;68071;45.062;7.356;2023-06-24T05:59:58;95568.22;;;18.62;80.13
49999;BME280;68071;45.062;7.356;2023-06-24T06:03:02;95562.19;;;18.86;77.71
49999;BME280;68071;45.062;7.356;2023-06-24T06:06:05;95559.72;;;19.01;74.28
49999;BME280;68071;45.062;7.356;2023-06-24T06:09:10;95559.22;;;19.38;77.23
49999;BME280;68071;45.062;7.356;2023-06-24T06:12:14;95561.50;;;19.52;79.02
49999;BME280;68071;45.062;7.356;2023-06-24T06:15:17;95568.88;;;19.68;77.43
49999;BME280;68071;45.062;7.356;2023-06-24T06:18:21;95558.50;;;19.78;80.15
49999;BME280;68071;45.062;7.356;2023-06-24T06:21:25;95563.19;;;20.03;79.17
49999;BME280;68071;45.062;7.356;2023-06-24T06:24:29;95565.88;;;20.66;77.29
49999;BME280;68071;45.062;7.356;2023-06-24T06:27:33;95572.13;;;20.61;78.36
49999;BME280;68071;45.062;7.356;2023-06-24T06:30:37;95568.59;;;21.16;70.04
49999;BME280;68071;45.062;7.356;2023-06-24T06:33:41;95567.94;;;21.68;68.50
49999;BME280;68071;45.062;7.356;2023-06-24T06:36:44;95572.00;;;21.76;65.72
49999;BME280;68071;45.062;7.356;2023-06-24T06:39:48;95573.28;;;21.20;72.40
49999;BME280;68071;45.062;7.356;2023-06-24T06:42:51;95565.63;;;21.67;66.57
49999;BME280;68071;45.062;7.356;2023-06-24T06:45:55;95568.56;;;21.82;65.86
49999;BME280;68071;45.062;7.356;2023-06-24T06:48:59;95576.22;;;21.81;64.24
49999;BME280;68071;45.062;7.356;2023-06-24T06:52:03;95567.69;;;22.09;62.88
49999;BME280;68071;45.062;7.356;2023-06-24T06:55:07;95560.38;;;22.45;61.08
49999;BME280;68071;45.062;7.356;2023-06-24T06:58:11;95559.38;;;22.15;65.17
49999;BME280;68071;45.062;7.356;2023-06-24T07:01:15;95566.50;;;22.34;61.32
49999;BME280;68071;45.062;7.356;2023-06-24T07:04:19;95567.94;;;22.20;64.23
49999;BME280;68071;45.062;7.356;2023-06-24T07:07:23;95558.50;;;22.33;50.04
49999;BME280;68071;45.062;7.356;2023-06-24T07:10:27;95564.75;;;22.37;53.94
49999;BME280;68071;45.062;7.356;2023-06-24T07:13:31;95554.72;;;22.45;48.35
49999;BME280;68071;45.062;7.356;2023-06-24T07:16:34;95564.38;;;22.54;53.13
49999;BME280;68071;45.062;7.356;2023-06-24T07:19:38;95561.03;;;22.64;52.38
49999;BME280;68071;45.062;7.356;2023-06-24T07:22:42;95556.84;;;22.84;51.12
49999;BME280;68071;45.062;7.356;2023-06-24T07:25:46;95556.25;;;23.04;56.19
49999;BME280;68071;45.062;7.356;2023-06-24T07:28:50;95556.78;;;22.93;53.62
49999;BME280;68071;45.062;7.356;2023-06-24T07:31:53;95553.41;;;22.80;51.92
49999;BME280;68071;45.062;7.356;2023-06-24T07:34:57;95549.75;;;22.64;56.17
49999;BME280;68071;45.062;7.356;2023-06-24T07:38:01;95560.56;;;22.66;53.37
49999;BME280;68071;45.062;7.356;2023-06-24T07:41:05;95551.03;;;22.88;53.86
49999;BME280;68071;45.062;7.356;2023-06-24T07:44:09;95554.50;;;22.58;46.33
49999;BME280;68071;45.062;7.356;2023-06-24T07:47:12;95547.25;;;22.66;51.43
49999;BME280;68071;45.062;7.356;2023-06-24T07:50:16;95559.91;;;22.95;46.85
49999;BME280;68071;45.062;7.356;2023-06-24T07:53:20;95554.06;;;22.99;48.61
49999;BME280;68071;45.062;7.356;2023-06-24T07:56:24;95553.53;;;23.10;44.38
49999;BME280;68071;45.062;7.356;2023-06-24T07:59:28;95549.41;;;23.35;43.40
49999;BME280;68071;45.062;7.356;2023-06-24T08:02:32;95547.56;;;23.32;47.08
49999;BME280;68071;45.062;7.356;2023-06-24T08:05:36;95554.56;;;23.37;46.94
49999;BME280;68071;45.062;7.356;2023-06-24T08:08:40;95553.03;;;23.51;48.04
49999;BME280;68071;45.062;7.356;2023-06-24T08:11:44;95548.59;;;23.20;46.48
49999;BME280;68071;45.062;7.356;2023-06-24T08:14:48;95550.03;;;23.84;44.06
49999;BME280;68071;45.062;7.356;2023-06-24T08:17:52;95544.50;;;24.41;44.46
49999;BME280;68071;45.062;7.356;2023-06-24T08:20:56;95543.97;;;24.37;45.89
49999;BME280;68071;45.062;7.356;2023-06-24T08:24:00;95545.84;;;24.10;44.49
49999;BME280;68071;45.062;7.356;2023-06-24T08:27:04;95542.25;;;23.79;42.95
49999;BME280;68071;45.062;7.356;2023-06-24T08:30:08;95546.72;;;24.52;42.28
49999;BME280;68071;45.062;7.356;2023-06-24T08:33:13;95545.38;;;23.81;44.35
49999;BME280;68071;45.062;7.356;2023-06-24T08:36:16;95544.28;;;23.94;44.60
49999;BME280;68071;45.062;7.356;2023-06-24T08:39:20;95545.09;;;24.09;47.05
49999;BME280;68071;45.062;7.356;2023-06-24T08:42:24;95546.50;;;24.70;45.53
49999;BME280;68071;45.062;7.356;2023-06-24T08:45:28;95539.53;;;24.15;48.12
49999;BME280;68071;45.062;7.356;2023-06-24T08:48:32;95543.84;;;24.31;46.39
49999;BME280;68071;45.062;7.356;2023-06-24T08:51:38;95538.72;;;24.14;48.18
49999;BME280;68071;45.062;7.356;2023-06-24T08:54:51;95547.59;;;24.58;48.09
49999;BME280;68071;45.062;7.356;2023-06-24T08:57:55;95556.44;;;25.01;44.41
49999;BME280;68071;45.062;7.356;2023-06-24T09:00:59;95554.69;;;25.30;43.08
49999;BME280;68071;45.062;7.356;2023-06-24T09:04:04;95550.31;;;25.76;38.78
49999;BME280;68071;45.062;7.356;2023-06-24T09:07:07;95558.34;;;25.83;37.57
49999;BME280;68071;45.062;7.356;2023-06-24T09:10:15;95555.09;;;25.91;36.16
49999;BME280;68071;45.062;7.356;2023-06-24T09:13:34;95551.50;;;25.96;36.26
49999;BME280;68071;45.062;7.356;2023-06-24T09:16:39;95549.88;;;25.36;37.08
49999;BME280;68071;45.062;7.356;2023-06-24T09:19:43;95553.19;;;25.82;35.77
49999;BME280;68071;45.062;7.356;2023-06-24T09:22:47;95554.38;;;26.02;36.22
49999;BME280;68071;45.062;7.356;2023-06-24T09:25:57;95549.13;;;26.15;39.06
49999;BME280;68071;45.062;7.356;2023-06-24T09:29:01;95555.13;;;26.23;37.67
49999;BME280;68071;45.062;7.356;2023-06-24T09:32:05;95557.16;;;26.22;35.55
49999;BME280;68071;45.062;7.356;2023-06-24T09:35:09;95563.78;;;26.13;36.74
49999;BME280;68071;45.062;7.356;2023-06-24T09:38:13;95555.63;;;25.95;37.15
49999;BME280;68071;45.062;7.356;2023-06-24T09:41:17;95553.00;;;26.18;36.47
49999;BME280;68071;45.062;7.356;2023-06-24T09:44:21;95564.00;;;26.42;35.37
49999;BME280;68071;45.062;7.356;2023-06-24T09:47:25;95559.31;;;26.07;39.11
49999;BME280;68071;45.062;7.356;2023-06-24T09:50:30;95560.50;;;26.21;38.03
49999;BME280;68071;45.062;7.356;2023-06-24T09:53:35;95547.16;;;26.27;37.71
49999;BME280;68071;45.062;7.356;2023-06-24T09:56:39;95557.47;;;25.72;35.44
49999;BME280;68071;45.062;7.356;2023-06-24T09:59:43;95552.75;;;26.53;35.58
49999;BME280;68071;45.062;7.356;2023-06-24T10:02:49;95554.31;;;26.54;34.34
49999;BME280;68071;45.062;7.356;2023-06-24T10:05:53;95548.09;;;26.50;35.85
49999;BME280;68071;45.062;7.356;2023-06-24T10:08:56;95544.31;;;26.65;36.52
49999;BME280;68071;45.062;7.356;2023-06-24T10:12:00;95549.78;;;26.74;33.55
49999;BME280;68071;45.062;7.356;2023-06-24T10:15:04;95547.25;;;26.44;35.30
49999;BME280;68071;45.062;7.356;2023-06-24T10:21:49;95549.47;;;26.66;35.36
49999;BME280;68071;45.062;7.356;2023-06-24T10:24:53;95539.38;;;27.03;34.44
49999;BME280;68071;45.062;7.356;2023-06-24T10:27:58;95550.03;;;26.76;37.21
49999;BME280;68071;45.062;7.356;2023-06-24T10:31:03;95544.84;;;27.12;34.21
49999;BME280;68071;45.062;7.356;2023-06-24T10:37:31;95538.72;;;27.37;34.59
49999;BME280;68071;45.062;7.356;2023-06-24T10:40:44;95531.28;;;26.84;36.86
49999;BME280;68071;45.062;7.356;2023-06-24T10:43:48;95529.28;;;26.96;36.36
49999;BME280;68071;45.062;7.356;2023-06-24T10:46:54;95527.16;;;26.80;37.12
49999;BME280;68071;45.062;7.356;2023-06-24T10:49:58;95535.34;;;27.27;34.24
49999;BME280;68071;45.062;7.356;2023-06-24T10:53:02;95526.47;;;27.08;35.89
49999;BME280;68071;45.062;7.356;2023-06-24T10:56:11;95530.13;;;27.20;36.32
49999;BME280;68071;45.062;7.356;2023-06-24T10:59:15;95528.47;;;27.51;35.23
49999;BME280;68071;45.062;7.356;2023-06-24T11:02:19;95521.31;;;27.06;36.23
49999;BME280;68071;45.062;7.356;2023-06-24T11:05:24;95519.16;;;27.56;34.15
49999;BME280;68071;45.062;7.356;2023-06-24T11:08:28;95516.41;;;27.01;36.80
49999;BME280;68071;45.062;7.356;2023-06-24T11:11:31;95523.91;;;27.10;38.60
49999;BME280;68071;45.062;7.356;2023-06-24T11:14:35;95516.84;;;27.71;36.34
49999;BME280;68071;45.062;7.356;2023-06-24T11:17:39;95514.28;;;27.68;36.50
49999;BME280;68071;45.062;7.356;2023-06-24T11:20:43;95513.25;;;27.59;38.39
49999;BME280;68071;45.062;7.356;2023-06-24T11:23:47;95508.50;;;27.28;39.35
49999;BME280;68071;45.062;7.356;2023-06-24T11:26:51;95502.03;;;27.22;39.95
49999;BME280;68071;45.062;7.356;2023-06-24T11:29:56;95510.94;;;27.81;34.67
49999;BME280;68071;45.062;7.356;2023-06-24T11:33:01;95502.66;;;27.60;38.38
49999;BME280;68071;45.062;7.356;2023-06-24T11:36:09;95497.16;;;27.45;36.90
49999;BME280;68071;45.062;7.356;2023-06-24T11:39:27;95490.00;;;27.95;34.33
49999;BME280;68071;45.062;7.356;2023-06-24T11:42:40;95488.47;;;27.60;35.73
49999;BME280;68071;45.062;7.356;2023-06-24T11:45:47;95495.44;;;27.70;34.20
49999;BME280;68071;45.062;7.356;2023-06-24T11:48:52;95482.44;;;27.35;34.73
49999;BME280;68071;45.062;7.356;2023-06-24T11:51:56;95484.09;;;27.70;35.10
49999;BME280;68071;45.062;7.356;2023-06-24T11:54:59;95479.69;;;27.92;36.73
49999;BME280;68071;45.062;7.356;2023-06-24T11:58:03;95488.44;;;27.48;41.83
49999;BME280;68071;45.062;7.356;2023-06-24T12:01:10;95489.00;;;28.27;31.88
49999;BME280;68071;45.062;7.356;2023-06-24T12:04:14;95481.44;;;28.52;35.45
49999;BME280;68071;45.062;7.356;2023-06-24T12:07:18;95476.84;;;28.32;36.46
49999;BME280;68071;45.062;7.356;2023-06-24T12:10:22;95478.91;;;28.26;36.06
49999;BME280;68071;45.062;7.356;2023-06-24T12:13:25;95476.84;;;28.20;35.63
49999;BME280;68071;45.062;7.356;2023-06-24T12:16:29;95475.28;;;28.08;40.62
49999;BME280;68071;45.062;7.356;2023-06-24T12:19:33;95477.56;;;28.49;35.59
49999;BME280;68071;45.062;7.356;2023-06-24T12:22:37;95476.78;;;28.55;32.23
49999;BME280;68071;45.062;7.356;2023-06-24T12:25:41;95469.88;;;28.27;36.62
49999;BME280;68071;45.062;7.356;2023-06-24T12:28:45;95466.91;;;28.84;35.22
49999;BME280;68071;45.062;7.356;2023-06-24T12:31:49;95465.69;;;28.45;34.16
49999;BME280;68071;45.062;7.356;2023-06-24T12:34:53;95458.88;;;28.82;36.00
49999;BME280;68071;45.062;7.356;2023-06-24T12:37:57;95467.50;;;29.19;36.54
49999;BME280;68071;45.062;7.356;2023-06-24T12:41:01;95465.94;;;29.18;36.52
49999;BME280;68071;45.062;7.356;2023-06-24T12:44:05;95460.56;;;28.09;35.44
49999;BME280;68071;45.062;7.356;2023-06-24T12:47:09;95462.38;;;27.90;38.66
49999;BME280;68071;45.062;7.356;2023-06-24T12:50:13;95463.13;;;28.42;38.81
49999;BME280;68071;45.062;7.356;2023-06-24T12:53:17;95466.13;;;28.66;32.92
49999;BME280;68071;45.062;7.356;2023-06-24T12:56:21;95452.94;;;28.69;33.14
49999;BME280;68071;45.062;7.356;2023-06-24T12:59:25;95458.50;;;28.27;37.86
49999;BME280;68071;45.062;7.356;2023-06-24T13:02:29;95456.81;;;28.72;35.18
49999;BME280;68071;45.062;7.356;2023-06-24T13:05:33;95449.88;;;28.61;37.11
49999;BME280;68071;45.062;7.356;2023-06-24T13:08:37;95448.41;;;28.32;37.01
49999;BME280;68071;45.062;7.356;2023-06-24T13:11:41;95452.16;;;28.80;38.28
49999;BME280;68071;45.062;7.356;2023-06-24T13:14:44;95447.31;;;28.52;38.67
49999;BME280;68071;45.062;7.356;2023-06-24T13:17:48;95453.63;;;28.98;41.99
49999;BME280;68071;45.062;7.356;2023-06-24T13:20:52;95441.47;;;28.97;38.54
49999;BME280;68071;45.062;7.356;2023-06-24T13:23:56;95443.88;;;29.29;34.68
49999;BME280;68071;45.062;7.356;2023-06-24T13:27:00;95446.38;;;28.97;37.45
49999;BME280;68071;45.062;7.356;2023-06-24T13:30:04;95436.69;;;29.23;34.17
49999;BME280;68071;45.062;7.356;2023-06-24T13:33:08;95444.50;;;29.53;34.65
49999;BME280;68071;45.062;7.356;2023-06-24T13:36:13;95441.81;;;29.30;39.68
49999;BME280;68071;45.062;7.356;2023-06-24T13:39:31;95437.66;;;29.37;34.87
49999;BME280;68071;45.062;7.356;2023-06-24T13:42:36;95439.72;;;28.89;33.47
49999;BME280;68071;45.062;7.356;2023-06-24T13:45:39;95435.94;;;29.17;36.06
49999;BME280;68071;45.062;7.356;2023-06-24T13:48:43;95444.03;;;29.85;36.07
49999;BME280;68071;45.062;7.356;2023-06-24T13:51:48;95432.75;;;29.68;33.24
49999;BME280;68071;45.062;7.356;2023-06-24T13:54:52;95429.28;;;30.36;28.74
49999;BME280;68071;45.062;7.356;2023-06-24T13:57:56;95433.22;;;30.08;33.68
49999;BME280;68071;45.062;7.356;2023-06-24T14:01:00;95418.97;;;30.08;34.08
49999;BME280;68071;45.062;7.356;2023-06-24T14:04:03;95418.50;;;30.29;33.46
49999;BME280;68071;45.062;7.356;2023-06-24T14:07:08;95412.38;;;30.19;33.87
49999;BME280;68071;45.062;7.356;2023-06-24T14:10:12;95417.59;;;30.64;31.25
49999;BME280;68071;45.062;7.356;2023-06-24T14:13:16;95408.44;;;31.10;31.04
49999;BME280;68071;45.062;7.356;2023-06-24T14:16:20;95416.09;;;29.47;34.26
49999;BME280;68071;45.062;7.356;2023-06-24T14:19:24;95413.28;;;28.94;35.22
49999;BME280;68071;45.062;7.356;2023-06-24T14:22:28;95401.00;;;30.38;31.39
49999;BME280;68071;45.062;7.356;2023-06-24T14:25:31;95401.97;;;29.66;32.52
49999;BME280;68071;45.062;7.356;2023-06-24T14:28:35;95392.81;;;29.01;37.40
49999;BME280;68071;45.062;7.356;2023-06-24T14:31:39;95401.06;;;30.08;32.97
49999;BME280;68071;45.062;7.356;2023-06-24T14:34:43;95392.81;;;29.43;33.99
49999;BME280;68071;45.062;7.356;2023-06-24T14:37:47;95385.13;;;28.08;32.46
49999;BME280;68071;45.062;7.356;2023-06-24T14:40:51;95384.47;;;29.51;33.33
49999;BME280;68071;45.062;7.356;2023-06-24T14:43:54;95381.84;;;30.14;33.72
49999;BME280;68071;45.062;7.356;2023-06-24T14:46:58;95376.44;;;30.35;33.03
49999;BME280;68071;45.062;7.356;2023-06-24T14:50:03;95377.88;;;30.67;34.68
49999;BME280;68071;45.062;7.356;2023-06-24T14:53:07;95367.44;;;29.76;38.32
49999;BME280;68071;45.062;7.356;2023-06-24T14:56:11;95368.66;;;30.36;31.09
49999;BME280;68071;45.062;7.356;2023-06-24T14:59:15;95372.31;;;31.13;34.49
49999;BME280;68071;45.062;7.356;2023-06-24T15:02:19;95365.31;;;31.65;30.09
49999;BME280;68071;45.062;7.356;2023-06-24T15:05:23;95347.28;;;30.23;34.79
49999;BME280;68071;45.062;7.356;2023-06-24T15:08:26;95353.06;;;31.19;30.16
49999;BME280;68071;45.062;7.356;2023-06-24T15:11:30;95354.47;;;30.30;32.75
49999;BME280;68071;45.062;7.356;2023-06-24T15:14:34;95343.69;;;30.42;34.76
49999;BME280;68071;45.062;7.356;2023-06-24T15:17:41;95342.09;;;31.23;30.86
49999;BME280;68071;45.062;7.356;2023-06-24T15:20:48;95346.06;;;31.33;32.01
49999;BME280;68071;45.062;7.356;2023-06-24T15:23:51;95351.94;;;31.74;31.57
49999;BME280;68071;45.062;7.356;2023-06-24T15:26:58;95341.41;;;31.17;33.07
49999;BME280;68071;45.062;7.356;2023-06-24T15:30:02;95341.00;;;32.05;27.68
49999;BME280;68071;45.062;7.356;2023-06-24T15:33:07;95344.16;;;31.55;29.36
49999;BME280;68071;45.062;7.356;2023-06-24T15:36:11;95352.16;;;31.43;27.10
49999;BME280;68071;45.062;7.356;2023-06-24T15:39:15;95341.19;;;32.20;28.95
49999;BME280;68071;45.062;7.356;2023-06-24T15:42:19;95342.94;;;32.64;28.68
49999;BME280;68071;45.062;7.356;2023-06-24T15:45:23;95339.69;;;32.94;26.12
49999;BME280;68071;45.062;7.356;2023-06-24T15:48:26;95345.66;;;32.96;26.72
49999;BME280;68071;45.062;7.356;2023-06-24T15:51:30;95332.03;;;32.89;30.10
49999;BME280;68071;45.062;7.356;2023-06-24T15:54:34;95339.50;;;32.79;27.19
49999;BME280;68071;45.062;7.356;2023-06-24T15:57:38;95328.41;;;32.75;26.92
49999;BME280;68071;45.062;7.356;2023-06-24T16:00:42;95327.19;;;33.18;26.21
49999;BME280;68071;45.062;7.356;2023-06-24T16:03:46;95330.66;;;32.28;30.42
49999;BME280;68071;45.062;7.356;2023-06-24T16:06:50;95323.63;;;32.91;26.61
49999;BME280;68071;45.062;7.356;2023-06-24T16:09:54;95327.44;;;31.92;28.64
49999;BME280;68071;45.062;7.356;2023-06-24T16:12:58;95327.38;;;33.21;29.54
49999;BME280;68071;45.062;7.356;2023-06-24T16:16:02;95315.16;;;32.85;26.49
49999;BME280;68071;45.062;7.356;2023-06-24T16:19:06;95320.34;;;32.73;30.14
49999;BME280;68071;45.062;7.356;2023-06-24T16:22:10;95321.06;;;32.39;26.36
49999;BME280;68071;45.062;7.356;2023-06-24T16:25:14;95309.84;;;32.41;30.48
49999;BME280;68071;45.062;7.356;2023-06-24T16:28:19;95307.97;;;32.57;27.37
49999;BME280;68071;45.062;7.356;2023-06-24T16:31:23;95314.50;;;32.93;26.79